Crown, PA (16220)

3:49 PM EDT on September 02, 2014 (GMT -0400)
Penn Oaks Campground | Change Station
CLOSE
Current Station
Personal Weather Station
Location: Leeper, PA
Elevation: 1621 ft
Nearby Weather Stations
Active Advisory: Severe Thunderstorm Warning

Elev 1621 ft 41.37 °N, 79.29 °W | Updated 1 second ago

Overcast
Overcast
75.7 °F
Feels Like 76 °F
N
2.9
Wind Variable Wind from South
Gusts 5.0 mph

Today
High -- | Low -- °F
--% Chance of Precip.
Yesterday
High -- | Low -- °F
Precip. -- in
6:44 AM 7:48 PM
First Quarter, 54% visible
Pressure 29.88 in
Visibility 10.0 miles
Clouds Few 2600 ft
Mostly Cloudy 3200 ft
Overcast 4000 ft
Heat Index 76 °F
Dew Point 70 °F
Humidity 82%
Rainfall 0.03 in
Snow Depth Not available.
UV 2 out of 12
Pollen 6.00 out of 12
Ozone Good
PM2.5 Moderate
Flu Activity Not available.
METAR KDUJ 021853Z AUTO 20006KT 10SM FEW026 BKN032 OVC040 24/19 A2992 RMK AO2 SLP117 T02390194

More Conditions Fewer Conditions

Pressure 29.88 in
Visibility 10.0 miles
Clouds Few 2600 ft
Mostly Cloudy 3200 ft
Overcast 4000 ft
Heat Index 76 °F
Dew Point 70 °F
Humidity 82%
Rainfall 0.03 in
Snow Depth Not available.
UV 2 out of 12
Pollen 6.00 out of 12
Ozone Good
PM2.5 Moderate
Flu Activity Not available.
METAR KDUJ 021853Z AUTO 20006KT 10SM FEW026 BKN032 OVC040 24/19 A2992 RMK AO2 SLP117 T02390194

More Conditions Fewer Conditions

10-Day Weather Forecast

Almanac

Astronomy

Sep. 02, 2014 Rise Set
Actual Time 6:44 AM EDT 7:48 PM EDT
Civil Twilight 6:15 AM EDT 8:16 PM EDT
Nautical Twilight 5:42 AM EDT 8:50 PM EDT
Astronomical Twilight 5:06 AM EDT 9:25 PM EDT
Moon 2:31 PM EDT No Moon Set
Length of Visible Light 14h 00m
Length of Day
13h 04m
Tomorrow will be 2m 39s shorter.
First Quarter, 54% of the Moon is Illuminated
Today
First Quarter
Sep 8
Full
Sep 15
Last Quarter
Sep 24
New
Oct 1
First Quarter

Today's Extremes

State Highs State Lows

Community

WunderPhotos

Upload Photos

1,749,751 photos uploaded!

WunderBlogs® & News

By Dr. Jeff Masters
Director of Meteorology, Weather Underground
By Kari Strenfel
Meteorologist, Weather Underground
By Christopher C. Burt
Weather Historian, Weather Underground
September 2, 2014
September 2, 2014
September 2, 2014

Nearby

Air Quality

  Air Quality AQ Index Pollutant
Yesterday Good
PM2.5
Yesterday Good
OZONE
Current Moderate
PM2.5
Current Good
OZONE
Tuesday Moderate
PM2.5
Tuesday Good
OZONE
Wednesday Good
PM2.5
Wednesday Good
OZONE
Thursday Moderate
PM2.5
Thursday Good
OZONE

Snow Depth

Station Depth Elevation
No new snow has been reported.

Earthquake Activity

City Distance Mag. Time & Date
No recent earthquake activity has been reported nearby.
Minimum magnitude displayed is 2.5.

Coastal Water Temperatures

Place Temperature
No Stations Reporting

Nearby Weather Stations